หน้าหลัก
METAR-TAF:

METAR-TAF

ท่าอากาศยาน :

Torsby, สวีเดน

ละติจูด: 60-09-17N, ลองจิจูด: 12-59-40E, ความสูง: 120 ม.

การสังเกตสภาพอากาศปัจจุบัน

รายงานได้ทำขึ้นเมื่อ 22 นาทีที่แล้ว ณ เวลา 01:20 UTC
ลมสงบ
อุณหภูมิ 11°C
ความชื้น 100%
ความกดอากาศ 1016 hPa
ทัศนวิสัย: 5000 ม.

METAR: ESST 200120Z AUTO 00000KT 5000 NCD 11/11 Q1016

เวลา: 03:42 (01:42 UTC)


TAF: หายไป

สังเกตการณ์สภาพอากาศและพยากรณ์อากาศของสนามบินมากกว่า 4000 แห่ง (รายงาน METAR และ TAF).

สถานีที่ดูได้จะแสดงไว้ด้วยจุดสีเหลืองและสีแดงบนแผนที่.

เลื่อนเมาส์ไปเหนือจุดเพื่อดูชื่อสถานี.

แล้วคลิกเพื่อดูสังเกตการณ์และการพยากรณ์สภาพอากาศ.

ในการเปลี่ยนแผนที่: คลิกที่ปุ่มสีเขียวที่มีกากบาทสีดำเพื่อซูมเข้า; ที่ปุ่มสีเขียวที่มีขีดเพื่อซูมออก; หรือที่ลูกศรสีเขียวเพื่อไปยังแผนที่ที่อยู่ติดกัน.


METAR-TAF: